首页
METAR-TAF:

METAR-TAF

机场 :

恩贾梅纳国际机场

恩賈梅納, 乍得

纬度: 12-08N, 经度: 015-02E, 海拔: 295米

当前天气观测

该预报发布于29分钟前的11:00 UTC
风速9节,风向,在之间变化
温度 34°C
湿度 14%
气压 1012 hPa
能见度10公里或以上
1500米以下无云,无积雨云

METAR: FTTJ 171100Z 36009KT 360V090 CAVOK 34/03 Q1012 NOSIG

时间: 12:29 (11:29 UTC)

预报

该预报发布于6小时和29分钟前的05:00 UTC
预报有效从17日的 06点(UTC)到 18日的 12点(UTC)
风速8节,风向北转东北
能见度10公里或以上
1500米以下无云,无积雨云
短暂存在
从 17日的 17点(UTC)到 17日的 20点(UTC)
能見度: 4000

TAF: FTTJ 170500Z 1706/1812 03008KT CAVOK TEMPO 1717/1720 4000 HZ

超过4000个机场的气象观测和天气预报(METAR&TAF报告)。

可查询的气象台以黄色和红色小点在地图上表示。

将鼠标移到小点上方,可查看气象台名称。

然后点击查看天气观测和预报。

如需切换地图:点击带黑十字的绿色按钮放大地图;点击带横线的绿色按钮缩小地图;或者点击绿色箭头查看邻近地区的地图。


METAR-TAF: